createdAt,value
2018-12-18T00:01:34.132Z,7.63
2018-12-18T00:04:06.563Z,9.47
2018-12-18T00:06:35.356Z,11.20
2018-12-18T00:09:14.428Z,9.13
2018-12-18T00:11:43.133Z,9.80
2018-12-18T00:14:20.407Z,9.20
2018-12-18T00:16:49.113Z,8.83
2018-12-18T00:19:32.321Z,9.10
2018-12-18T00:22:13.236Z,9.13
2018-12-18T00:24:45.832Z,9.73
2018-12-18T00:27:14.564Z,8.73
2018-12-18T00:29:49.160Z,8.73
2018-12-18T00:32:40.394Z,9.00
2018-12-18T00:35:12.640Z,8.00
2018-12-18T00:37:46.839Z,8.47
2018-12-18T00:40:27.939Z,9.43
2018-12-18T00:43:02.312Z,8.70
2018-12-18T00:45:34.850Z,10.80
2018-12-18T00:48:13.364Z,9.33
2018-12-18T00:50:43.835Z,9.47
2018-12-18T00:53:18.103Z,9.00
2018-12-18T00:55:59.637Z,8.83
2018-12-18T01:01:42.380Z,8.27
2018-12-18T01:04:21.481Z,7.73
2018-12-18T01:07:00.418Z,7.73
2018-12-18T01:09:29.327Z,8.17
2018-12-18T01:15:14.618Z,7.50
2018-12-18T01:18:02.342Z,8.07
2018-12-18T01:20:43.929Z,8.20
2018-12-18T01:23:16.390Z,8.03
2018-12-18T01:26:01.175Z,8.97
2018-12-18T01:28:45.840Z,8.70
2018-12-18T01:31:14.568Z,8.50
2018-12-18T01:33:48.826Z,7.97
2018-12-18T01:36:30.204Z,10.43
2018-12-18T01:39:12.704Z,7.97
2018-12-18T01:41:43.079Z,8.07
2018-12-18T01:44:11.804Z,8.47
2018-12-18T01:46:52.591Z,7.77
2018-12-18T01:49:35.779Z,8.73
2018-12-18T01:52:08.539Z,8.87
2018-12-18T01:54:43.043Z,9.37
2018-12-18T02:00:11.428Z,9.30
2018-12-18T02:03:00.946Z,8.67
2018-12-18T02:05:32.963Z,9.73
2018-12-18T02:08:13.797Z,10.13
2018-12-18T02:10:49.664Z,9.23
2018-12-18T02:13:26.725Z,10.00
2018-12-18T02:16:01.555Z,8.53
2018-12-18T02:18:30.257Z,9.70
2018-12-18T02:21:05.427Z,9.37
2018-12-18T02:23:52.739Z,10.50
2018-12-18T02:26:31.607Z,8.70
2018-12-18T02:29:00.360Z,8.30
2018-12-18T02:31:35.287Z,9.30
2018-12-18T02:34:13.739Z,10.03
2018-12-18T02:36:40.541Z,9.87
2018-12-18T02:39:09.283Z,9.27
2018-12-18T02:41:51.179Z,10.53
2018-12-18T02:44:42.065Z,9.20
2018-12-18T02:47:17.276Z,9.47
2018-12-18T02:49:46.028Z,9.47
2018-12-18T02:52:14.734Z,10.30
2018-12-18T02:55:02.296Z,9.00
2018-12-18T02:57:31.052Z,8.73
2018-12-18T03:00:04.011Z,10.47
2018-12-18T03:02:32.742Z,9.33
2018-12-18T03:05:05.335Z,9.50
2018-12-18T03:07:34.046Z,10.13
2018-12-18T03:10:02.887Z,9.33
2018-12-18T03:12:31.584Z,10.10
2018-12-18T03:15:12.483Z,12.30
2018-12-18T03:17:42.304Z,11.23
2018-12-18T03:20:29.463Z,11.47
2018-12-18T03:23:08.456Z,11.20
2018-12-18T03:25:37.215Z,10.47
2018-12-18T03:28:05.911Z,9.50
2018-12-18T03:30:46.857Z,10.00
2018-12-18T03:33:19.448Z,9.00
2018-12-18T03:35:48.284Z,8.87
2018-12-18T03:38:16.999Z,8.40
2018-12-18T03:40:45.773Z,9.83
2018-12-18T03:43:28.944Z,8.73
2018-12-18T03:45:57.642Z,8.90
2018-12-18T03:48:26.346Z,7.83
2018-12-18T03:50:55.048Z,8.13
2018-12-18T03:53:27.469Z,9.47
2018-12-18T03:55:56.216Z,9.03
2018-12-18T03:58:24.918Z,8.47
2018-12-18T04:00:53.675Z,8.23
2018-12-18T04:03:35.185Z,9.33
2018-12-18T04:06:04.259Z,8.83
2018-12-18T04:08:32.995Z,8.13
2018-12-18T04:11:01.695Z,7.87
2018-12-18T04:13:55.356Z,9.77
2018-12-18T04:16:24.056Z,9.90
2018-12-18T04:22:01.648Z,9.57
2018-12-18T04:24:33.831Z,10.00
2018-12-18T04:27:02.583Z,9.97
2018-12-18T04:29:31.311Z,9.17
2018-12-18T04:32:00.073Z,11.07
2018-12-18T04:34:32.504Z,10.00
2018-12-18T04:37:01.211Z,9.87
2018-12-18T04:39:29.921Z,9.77
2018-12-18T04:41:58.680Z,10.97
2018-12-18T04:44:33.731Z,9.97
2018-12-18T04:47:21.173Z,9.30
2018-12-18T04:49:49.876Z,10.20
2018-12-18T04:52:18.648Z,8.83
2018-12-18T04:55:00.314Z,9.53
2018-12-18T04:57:29.058Z,10.30
2018-12-18T04:59:57.747Z,9.57
2018-12-18T05:02:26.463Z,8.70
2018-12-18T05:04:58.844Z,10.53
2018-12-18T05:07:35.287Z,12.27
2018-12-18T05:10:04.420Z,10.90
2018-12-18T05:12:33.180Z,11.30
2018-12-18T05:15:08.244Z,10.80
2018-12-18T05:17:36.951Z,10.00
2018-12-18T05:20:12.771Z,10.47
2018-12-18T05:22:41.477Z,9.47
2018-12-18T05:25:14.276Z,10.77
2018-12-18T05:27:48.454Z,10.80
2018-12-18T05:30:29.700Z,10.13
2018-12-18T05:33:02.330Z,10.60
2018-12-18T05:35:31.094Z,9.60
2018-12-18T05:37:59.875Z,9.73
2018-12-18T05:40:46.881Z,11.27
2018-12-18T05:43:19.271Z,8.60
2018-12-18T05:46:00.067Z,9.33
2018-12-18T05:48:34.439Z,10.03
2018-12-18T05:51:03.224Z,10.57
2018-12-18T05:53:35.304Z,10.60
2018-12-18T05:56:04.009Z,9.07
2018-12-18T05:58:39.959Z,10.73
2018-12-18T06:01:09.956Z,10.17
2018-12-18T06:03:38.676Z,11.27
2018-12-18T06:06:21.359Z,10.87
2018-12-18T06:08:50.115Z,10.63
2018-12-18T06:11:18.887Z,12.63
2018-12-18T06:17:00.864Z,13.20
2018-12-18T06:19:29.561Z,13.33
2018-12-18T06:21:58.259Z,12.93
2018-12-18T06:24:32.792Z,12.37
2018-12-18T06:27:01.491Z,11.60
2018-12-18T06:29:30.229Z,11.87
2018-12-18T06:32:21.623Z,14.60
2018-12-18T06:34:53.944Z,14.37
2018-12-18T06:37:29.212Z,11.10
2018-12-18T06:39:57.918Z,12.73
2018-12-18T06:42:26.627Z,13.87
2018-12-18T06:45:05.213Z,13.23
2018-12-18T06:47:37.075Z,13.27
2018-12-18T06:50:05.957Z,14.00
2018-12-18T06:52:34.711Z,14.73
2018-12-18T06:55:06.915Z,13.07
2018-12-18T06:57:35.619Z,12.00
2018-12-18T07:00:06.548Z,11.67
2018-12-18T07:02:51.364Z,9.67
2018-12-18T07:05:25.834Z,10.77
2018-12-18T07:07:57.529Z,10.93
2018-12-18T07:10:25.284Z,11.50
2018-12-18T07:12:54.049Z,9.97
2018-12-18T07:15:22.862Z,11.33
2018-12-18T07:17:51.585Z,11.03
2018-12-18T07:20:20.283Z,11.57
2018-12-18T07:22:48.998Z,10.53
2018-12-18T07:25:17.696Z,10.47
2018-12-18T07:27:46.408Z,10.07
2018-12-18T07:30:29.547Z,10.87
2018-12-18T07:32:58.328Z,10.97
2018-12-18T07:35:27.115Z,11.83
2018-12-18T07:38:01.300Z,11.30
2018-12-18T07:40:44.459Z,11.03
2018-12-18T07:46:14.253Z,10.13
2018-12-18T07:48:51.752Z,10.50
2018-12-18T07:51:39.386Z,11.27
2018-12-18T07:54:22.888Z,11.20
2018-12-18T07:57:07.665Z,10.67
2018-12-18T07:59:42.300Z,11.73
2018-12-18T08:02:11.095Z,11.70
2018-12-18T08:04:51.820Z,12.77
2018-12-18T08:07:20.527Z,9.30
2018-12-18T08:09:54.963Z,11.43
2018-12-18T08:12:30.887Z,9.90
2018-12-18T08:15:05.829Z,10.13
2018-12-18T08:17:34.531Z,11.07
2018-12-18T08:20:03.579Z,9.27
2018-12-18T08:22:32.363Z,10.90
2018-12-18T08:25:17.971Z,9.37
2018-12-18T08:27:53.320Z,9.33
2018-12-18T08:30:22.168Z,9.33
2018-12-18T08:32:50.863Z,7.97
2018-12-18T08:35:21.705Z,8.40
2018-12-18T08:38:07.044Z,7.63
2018-12-18T08:40:50.019Z,7.70
2018-12-18T08:43:35.276Z,7.73
2018-12-18T08:49:11.625Z,6.07
2018-12-18T08:51:40.379Z,6.33
2018-12-18T08:54:12.778Z,6.50
2018-12-18T08:59:38.312Z,7.27
2018-12-18T09:02:07.088Z,7.53
2018-12-18T09:04:41.769Z,7.47
2018-12-18T09:07:23.724Z,7.23
2018-12-18T09:09:58.079Z,6.60
2018-12-18T09:12:45.501Z,6.30
2018-12-18T09:15:57.960Z,9.30
2018-12-18T09:24:14.540Z,10.00
2018-12-18T09:27:02.040Z,9.07
2018-12-18T09:29:31.711Z,8.67
2018-12-18T09:32:00.406Z,8.53
2018-12-18T09:34:34.872Z,6.87
2018-12-18T09:37:12.481Z,7.80
2018-12-18T09:39:43.424Z,8.17
2018-12-18T09:45:11.372Z,7.93
2018-12-18T09:47:46.819Z,9.50
2018-12-18T09:50:15.604Z,7.27
2018-12-18T09:52:44.309Z,7.90
2018-12-18T09:55:17.860Z,8.10
2018-12-18T09:57:52.205Z,8.07
2018-12-18T10:00:20.866Z,7.17
2018-12-18T10:02:49.571Z,7.20
2018-12-18T10:05:18.344Z,6.40
2018-12-18T10:07:47.047Z,7.93
2018-12-18T10:10:15.810Z,7.20
2018-12-18T10:12:48.857Z,8.13
2018-12-18T10:15:17.565Z,8.07
2018-12-18T10:17:46.311Z,7.77
2018-12-18T10:20:15.031Z,6.20
2018-12-18T10:22:43.807Z,7.43
2018-12-18T10:25:15.747Z,7.20
2018-12-18T10:27:50.144Z,6.37
2018-12-18T10:30:18.891Z,6.73
2018-12-18T10:32:59.391Z,6.10
2018-12-18T10:35:28.356Z,5.20
2018-12-18T10:38:02.612Z,5.93
2018-12-18T10:40:36.808Z,5.40
2018-12-18T10:43:11.547Z,6.30
2018-12-18T10:45:46.407Z,5.73
2018-12-18T10:48:15.155Z,6.20
2018-12-18T10:50:47.636Z,4.67
2018-12-18T10:56:33.119Z,5.13
2018-12-18T10:59:01.815Z,4.43
2018-12-18T11:01:39.655Z,4.57
2018-12-18T11:07:17.633Z,5.90
2018-12-18T11:09:48.091Z,4.80
2018-12-18T11:12:21.132Z,5.00
2018-12-18T11:14:53.514Z,4.83
2018-12-18T11:17:22.275Z,4.60
2018-12-18T11:19:50.973Z,4.83
2018-12-18T11:22:19.719Z,4.60
2018-12-18T11:25:08.118Z,4.90
2018-12-18T11:27:36.827Z,5.30
2018-12-18T11:30:05.724Z,5.63
2018-12-18T11:32:35.068Z,5.30
2018-12-18T11:35:26.572Z,4.80
2018-12-18T11:37:55.285Z,6.60
2018-12-18T11:40:24.059Z,5.20
2018-12-18T11:42:52.824Z,5.13
2018-12-18T11:45:21.620Z,5.30
2018-12-18T11:47:50.395Z,5.47
2018-12-18T11:50:19.183Z,5.83
2018-12-18T11:52:47.896Z,5.30
2018-12-18T11:55:16.591Z,4.87
2018-12-18T11:57:45.283Z,5.50
2018-12-18T12:00:16.017Z,4.77
2018-12-18T12:02:44.912Z,4.47
2018-12-18T12:05:17.259Z,5.27
2018-12-18T12:07:46.032Z,5.37
2018-12-18T12:10:14.816Z,5.20
2018-12-18T12:12:44.906Z,4.53
2018-12-18T12:15:19.331Z,3.67
2018-12-18T12:17:48.346Z,3.47
2018-12-18T12:20:17.171Z,3.83
2018-12-18T12:22:46.016Z,2.80
2018-12-18T12:25:18.200Z,3.00
2018-12-18T12:27:52.196Z,4.23
2018-12-18T12:30:20.923Z,4.03
2018-12-18T12:36:03.432Z,3.83
2018-12-18T12:38:32.212Z,4.50
2018-12-18T12:41:00.923Z,3.70
2018-12-18T12:43:32.855Z,3.27
2018-12-18T12:46:01.767Z,2.93
2018-12-18T12:48:36.026Z,3.80
2018-12-18T12:51:04.819Z,5.10
2018-12-18T12:53:43.881Z,5.30
2018-12-18T12:56:12.584Z,4.43
2018-12-18T12:58:59.809Z,4.10
2018-12-18T13:01:28.652Z,4.00
2018-12-18T13:04:09.681Z,3.13
2018-12-18T13:06:38.392Z,3.10
2018-12-18T13:09:08.519Z,3.93
2018-12-18T13:11:37.227Z,3.70
2018-12-18T13:14:22.202Z,3.80
2018-12-18T13:16:50.968Z,4.47
2018-12-18T13:19:19.738Z,3.60
2018-12-18T13:21:48.440Z,3.17
2018-12-18T13:24:32.704Z,3.50
2018-12-18T13:27:01.415Z,3.43
2018-12-18T13:29:36.684Z,2.90
2018-12-18T13:32:06.463Z,2.87
2018-12-18T13:34:38.289Z,2.90
2018-12-18T13:37:07.041Z,2.67
2018-12-18T13:39:35.799Z,2.70
2018-12-18T13:42:04.567Z,2.50
2018-12-18T13:44:37.181Z,3.63
2018-12-18T13:47:05.892Z,2.53
2018-12-18T13:49:34.659Z,2.80
2018-12-18T13:52:03.439Z,2.70
2018-12-18T13:54:45.687Z,2.53
2018-12-18T13:57:14.392Z,3.27
2018-12-18T13:59:43.107Z,3.60
2018-12-18T14:02:11.817Z,2.87
2018-12-18T14:04:44.536Z,4.27
2018-12-18T14:07:13.227Z,2.70
2018-12-18T14:09:42.087Z,2.77
2018-12-18T14:12:11.014Z,2.73
2018-12-18T14:14:42.915Z,3.17
2018-12-18T14:17:11.756Z,2.60
2018-12-18T14:19:40.445Z,3.07
2018-12-18T14:22:09.151Z,2.60
2018-12-18T14:24:42.528Z,2.30
2018-12-18T14:27:11.305Z,2.90
2018-12-18T14:29:40.080Z,3.53
2018-12-18T14:35:10.483Z,2.47
2018-12-18T14:37:39.260Z,2.30
2018-12-18T14:40:07.947Z,1.90
2018-12-18T14:42:36.670Z,2.03
2018-12-18T14:45:08.675Z,1.87
2018-12-18T14:47:43.330Z,1.70
2018-12-18T14:50:24.452Z,1.90
2018-12-18T14:53:01.032Z,1.53
2018-12-18T14:55:40.115Z,1.70
2018-12-18T14:58:12.635Z,1.57
2018-12-18T15:00:41.403Z,1.40
2018-12-18T15:03:14.630Z,1.47
2018-12-18T15:05:43.308Z,4.80
2018-12-18T15:11:31.464Z,2.60
2018-12-18T15:14:03.800Z,3.27
2018-12-18T15:16:35.688Z,3.50
2018-12-18T15:19:10.267Z,3.40
2018-12-18T15:21:38.968Z,3.13
2018-12-18T15:24:14.796Z,2.60
2018-12-18T15:26:55.866Z,2.57
2018-12-18T15:29:28.206Z,2.60
2018-12-18T15:31:59.266Z,2.27
2018-12-18T15:34:29.741Z,1.80
2018-12-18T15:37:09.570Z,2.27
2018-12-18T15:48:25.454Z,4.00
2018-12-18T15:50:54.163Z,3.57
2018-12-18T15:53:41.690Z,2.97
2018-12-18T15:56:10.391Z,4.40
2018-12-18T15:58:45.415Z,3.87
2018-12-18T16:01:32.819Z,4.27
2018-12-18T16:04:11.620Z,3.13
2018-12-18T16:06:54.299Z,3.40
2018-12-18T16:09:23.163Z,3.10
2018-12-18T16:11:51.887Z,3.83
2018-12-18T16:17:22.757Z,5.00
2018-12-18T16:20:03.681Z,4.03
2018-12-18T16:22:44.351Z,3.30
2018-12-18T16:25:31.219Z,3.37
2018-12-18T16:28:14.768Z,4.40
2018-12-18T16:30:43.457Z,4.20
2018-12-18T16:33:16.123Z,2.90
2018-12-18T16:35:48.303Z,2.40
2018-12-18T16:38:20.363Z,3.57
2018-12-18T16:41:07.606Z,3.23
2018-12-18T16:43:46.515Z,3.20
2018-12-18T16:46:21.308Z,3.20
2018-12-18T16:49:02.932Z,3.37
2018-12-18T16:51:31.844Z,3.60
2018-12-18T16:54:18.706Z,3.50
2018-12-18T16:56:52.365Z,3.87
2018-12-18T16:59:37.944Z,3.20
2018-12-18T17:02:06.656Z,3.43
2018-12-18T17:04:51.445Z,3.57
2018-12-18T17:07:21.640Z,3.80
2018-12-18T17:09:51.880Z,3.50
2018-12-18T17:12:32.615Z,4.30
2018-12-18T17:15:13.552Z,5.57
2018-12-18T17:17:59.096Z,6.57
2018-12-18T17:20:27.898Z,5.17
2018-12-18T17:26:13.018Z,5.10
2018-12-18T17:28:41.723Z,5.40
2018-12-18T17:31:15.022Z,4.03
2018-12-18T17:33:49.778Z,3.10
2018-12-18T17:36:37.278Z,3.67
2018-12-18T17:39:15.544Z,2.70
2018-12-18T17:41:59.120Z,3.70
2018-12-18T17:44:31.708Z,3.97
2018-12-18T17:47:00.414Z,4.20
2018-12-18T17:49:34.620Z,5.03
2018-12-18T17:52:03.469Z,4.93
2018-12-18T17:54:35.427Z,5.07
2018-12-18T17:57:10.239Z,5.27
2018-12-18T17:59:40.884Z,5.37
2018-12-18T18:02:19.359Z,5.27
2018-12-18T18:04:51.679Z,6.07
2018-12-18T18:07:26.251Z,7.23
2018-12-18T18:10:10.459Z,8.17
2018-12-18T18:12:58.265Z,7.90
2018-12-18T18:15:27.064Z,8.90
2018-12-18T18:20:57.493Z,9.53
2018-12-18T18:23:32.059Z,9.10
2018-12-18T18:26:21.590Z,7.77
2018-12-18T18:28:50.339Z,5.00
2018-12-18T18:31:19.085Z,4.93
2018-12-18T18:33:53.956Z,5.40
2018-12-18T18:36:41.510Z,4.23
2018-12-18T18:39:10.527Z,4.50
2018-12-18T18:41:39.284Z,3.60
2018-12-18T18:44:11.127Z,3.43
2018-12-18T18:46:39.815Z,3.20
2018-12-18T18:49:08.548Z,3.33
2018-12-18T18:51:37.270Z,2.97
2018-12-18T18:54:09.077Z,3.00
2018-12-18T18:56:50.228Z,2.80
2018-12-18T18:59:18.995Z,2.70
2018-12-18T19:01:47.747Z,2.80
2018-12-18T19:04:28.668Z,3.00
2018-12-18T19:07:13.370Z,3.53
2018-12-18T19:09:42.144Z,3.20
2018-12-18T19:12:10.924Z,3.73
2018-12-18T19:14:43.368Z,3.57
2018-12-18T19:17:12.203Z,4.23
2018-12-18T19:19:52.940Z,3.30
2018-12-18T19:22:26.579Z,3.60
2018-12-18T19:24:59.215Z,3.43
2018-12-18T19:27:33.968Z,3.80
2018-12-18T19:30:23.831Z,3.40
2018-12-18T19:32:52.725Z,4.13
2018-12-18T19:35:21.494Z,4.43
2018-12-18T19:38:08.991Z,4.13
2018-12-18T19:40:47.257Z,4.07
2018-12-18T19:43:25.287Z,4.17
2018-12-18T19:46:10.440Z,4.10
2018-12-18T19:48:43.620Z,4.07
2018-12-18T19:51:17.220Z,4.50
2018-12-18T19:53:49.791Z,4.20
2018-12-18T19:56:28.660Z,3.97
2018-12-18T19:58:57.404Z,4.70
2018-12-18T20:04:40.071Z,4.70
2018-12-18T20:07:08.762Z,4.03
2018-12-18T20:09:38.583Z,4.43
2018-12-18T20:12:14.792Z,4.77
2018-12-18T20:14:47.083Z,4.17
2018-12-18T20:17:35.237Z,4.47
2018-12-18T20:20:06.658Z,5.47
2018-12-18T20:22:41.436Z,4.80
2018-12-18T20:25:26.547Z,4.30
2018-12-18T20:28:07.427Z,4.37
2018-12-18T20:30:36.224Z,5.30
2018-12-18T20:33:17.747Z,4.43
2018-12-18T20:35:52.332Z,4.97
2018-12-18T20:38:21.027Z,5.60
2018-12-18T20:40:49.718Z,4.67
2018-12-18T20:43:24.445Z,5.20
2018-12-18T20:46:11.962Z,5.17
2018-12-18T20:48:40.707Z,6.37
2018-12-18T20:51:22.148Z,6.47
2018-12-18T20:54:01.227Z,6.13
2018-12-18T20:56:29.975Z,6.80
2018-12-18T20:59:19.133Z,6.47
2018-12-18T21:01:47.872Z,6.30
2018-12-18T21:04:23.774Z,6.00
2018-12-18T21:07:05.355Z,6.50
2018-12-18T21:09:34.196Z,5.00
2018-12-18T21:12:03.011Z,6.97
2018-12-18T21:14:48.079Z,7.70
2018-12-18T21:17:16.972Z,7.93
2018-12-18T21:19:46.927Z,8.63
2018-12-18T21:22:15.740Z,8.93
2018-12-18T21:25:03.254Z,8.47
2018-12-18T21:27:46.960Z,7.00
2018-12-18T21:30:15.815Z,6.50
2018-12-18T21:32:44.672Z,7.13
2018-12-18T21:35:34.343Z,5.07
2018-12-18T21:38:15.129Z,5.97
2018-12-18T21:40:43.938Z,7.07
2018-12-18T21:43:22.963Z,5.57
2018-12-18T21:46:10.552Z,5.97
2018-12-18T21:49:02.778Z,6.83
2018-12-18T21:51:37.228Z,7.23
2018-12-18T21:54:09.757Z,7.27
2018-12-18T21:56:38.607Z,8.47
2018-12-18T21:59:07.407Z,7.63
2018-12-18T22:01:39.302Z,6.80
2018-12-18T22:04:30.205Z,6.47
2018-12-18T22:07:11.605Z,6.53
2018-12-18T22:09:40.396Z,6.33
2018-12-18T22:12:09.181Z,6.93
2018-12-18T22:14:41.636Z,6.50
2018-12-18T22:17:10.472Z,7.03
2018-12-18T22:19:39.262Z,7.13
2018-12-18T22:22:08.048Z,6.33
2018-12-18T22:24:55.321Z,6.47
2018-12-18T22:27:36.632Z,6.27
2018-12-18T22:30:07.103Z,6.67
2018-12-18T22:35:29.230Z,7.10
2018-12-18T22:37:57.923Z,5.97
2018-12-18T22:40:26.643Z,6.03
2018-12-18T22:42:55.348Z,5.50
2018-12-18T22:45:44.854Z,7.57
2018-12-18T22:48:13.632Z,5.83
2018-12-18T22:50:42.339Z,6.13
2018-12-18T22:53:29.978Z,6.60
2018-12-18T22:58:52.587Z,5.73
2018-12-18T23:04:30.024Z,6.80
2018-12-18T23:06:58.727Z,5.23
2018-12-18T23:09:27.504Z,5.57
2018-12-18T23:11:56.216Z,7.20
2018-12-18T23:14:34.712Z,6.43
2018-12-18T23:17:09.629Z,7.17
2018-12-18T23:19:50.911Z,7.33
2018-12-18T23:22:19.607Z,6.73
2018-12-18T23:24:52.108Z,7.23
2018-12-18T23:27:20.801Z,6.93
2018-12-18T23:29:49.488Z,6.53
2018-12-18T23:32:18.195Z,6.87
2018-12-18T23:34:50.715Z,6.90
2018-12-18T23:37:20.880Z,6.80
2018-12-18T23:39:55.379Z,7.60
2018-12-18T23:42:30.083Z,7.77
2018-12-18T23:45:15.374Z,7.07
2018-12-18T23:48:01.901Z,7.80
2018-12-18T23:50:30.727Z,8.47
2018-12-18T23:52:59.687Z,7.43
2018-12-18T23:55:41.377Z,6.70
2018-12-18T23:58:10.072Z,6.60
